sensor_id;sensor_type;location;lat;lon;timestamp;P1;durP1;ratioP1;P2;durP2;ratioP2
19173;SDS011;9719;49.322;8.536;2023-05-07T00:02:52;1.48;;;1.38;;
19173;SDS011;9719;49.322;8.536;2023-05-07T00:07:53;1.48;;;1.30;;
19173;SDS011;9719;49.322;8.536;2023-05-07T00:12:56;1.50;;;1.40;;
19173;SDS011;9719;49.322;8.536;2023-05-07T00:17:58;2.35;;;2.15;;
19173;SDS011;9719;49.322;8.536;2023-05-07T00:22:59;1.95;;;1.35;;
19173;SDS011;9719;49.322;8.536;2023-05-07T00:28:02;1.75;;;1.65;;
19173;SDS011;9719;49.322;8.536;2023-05-07T00:33:04;1.50;;;1.48;;
19173;SDS011;9719;49.322;8.536;2023-05-07T00:38:06;1.15;;;1.05;;
19173;SDS011;9719;49.322;8.536;2023-05-07T00:43:09;3.33;;;1.55;;
19173;SDS011;9719;49.322;8.536;2023-05-07T00:48:11;1.73;;;1.63;;
19173;SDS011;9719;49.322;8.536;2023-05-07T00:53:13;1.15;;;1.15;;
19173;SDS011;9719;49.322;8.536;2023-05-07T00:58:16;1.50;;;1.17;;
19173;SDS011;9719;49.322;8.536;2023-05-07T01:03:18;1.38;;;1.33;;
19173;SDS011;9719;49.322;8.536;2023-05-07T01:08:20;1.55;;;1.45;;
19173;SDS011;9719;49.322;8.536;2023-05-07T01:13:26;2.30;;;1.75;;
19173;SDS011;9719;49.322;8.536;2023-05-07T01:18:28;1.35;;;1.25;;
19173;SDS011;9719;49.322;8.536;2023-05-07T01:23:32;1.50;;;1.40;;
19173;SDS011;9719;49.322;8.536;2023-05-07T01:28:35;1.65;;;1.30;;
19173;SDS011;9719;49.322;8.536;2023-05-07T01:33:37;1.33;;;1.23;;
19173;SDS011;9719;49.322;8.536;2023-05-07T01:38:42;1.63;;;1.38;;
19173;SDS011;9719;49.322;8.536;2023-05-07T01:43:45;1.58;;;1.45;;
19173;SDS011;9719;49.322;8.536;2023-05-07T01:48:48;2.15;;;1.27;;
19173;SDS011;9719;49.322;8.536;2023-05-07T01:53:52;1.35;;;1.30;;
19173;SDS011;9719;49.322;8.536;2023-05-07T01:58:54;1.40;;;1.25;;
19173;SDS011;9719;49.322;8.536;2023-05-07T02:03:55;1.63;;;1.52;;
19173;SDS011;9719;49.322;8.536;2023-05-07T02:08:58;1.77;;;1.52;;
19173;SDS011;9719;49.322;8.536;2023-05-07T02:14:00;1.65;;;1.55;;
19173;SDS011;9719;49.322;8.536;2023-05-07T02:19:01;1.98;;;1.58;;
19173;SDS011;9719;49.322;8.536;2023-05-07T02:24:05;2.00;;;1.90;;
19173;SDS011;9719;49.322;8.536;2023-05-07T02:29:06;1.35;;;1.25;;
19173;SDS011;9719;49.322;8.536;2023-05-07T02:34:08;1.88;;;1.63;;
19173;SDS011;9719;49.322;8.536;2023-05-07T02:39:12;1.73;;;1.35;;
19173;SDS011;9719;49.322;8.536;2023-05-07T02:44:14;3.15;;;1.95;;
19173;SDS011;9719;49.322;8.536;2023-05-07T02:49:15;1.65;;;1.55;;
19173;SDS011;9719;49.322;8.536;2023-05-07T02:54:18;1.50;;;1.40;;
19173;SDS011;9719;49.322;8.536;2023-05-07T02:59:20;7.00;;;1.85;;
19173;SDS011;9719;49.322;8.536;2023-05-07T03:04:21;2.75;;;1.90;;
19173;SDS011;9719;49.322;8.536;2023-05-07T03:09:24;2.90;;;1.65;;
19173;SDS011;9719;49.322;8.536;2023-05-07T03:14:26;2.08;;;1.83;;
19173;SDS011;9719;49.322;8.536;2023-05-07T03:19:28;1.67;;;1.58;;
19173;SDS011;9719;49.322;8.536;2023-05-07T03:24:31;1.80;;;1.70;;
19173;SDS011;9719;49.322;8.536;2023-05-07T03:29:33;1.90;;;1.80;;
19173;SDS011;9719;49.322;8.536;2023-05-07T03:34:35;1.60;;;1.50;;
19173;SDS011;9719;49.322;8.536;2023-05-07T03:39:38;1.98;;;1.88;;
19173;SDS011;9719;49.322;8.536;2023-05-07T03:44:39;2.78;;;1.90;;
19173;SDS011;9719;49.322;8.536;2023-05-07T03:49:41;2.50;;;2.33;;
19173;SDS011;9719;49.322;8.536;2023-05-07T03:54:44;1.65;;;1.55;;
19173;SDS011;9719;49.322;8.536;2023-05-07T03:59:46;1.98;;;1.88;;
19173;SDS011;9719;49.322;8.536;2023-05-07T04:04:48;2.38;;;2.17;;
19173;SDS011;9719;49.322;8.536;2023-05-07T04:09:51;5.50;;;2.25;;
19173;SDS011;9719;49.322;8.536;2023-05-07T04:14:52;1.90;;;1.73;;
19173;SDS011;9719;49.322;8.536;2023-05-07T04:19:54;1.70;;;1.60;;
19173;SDS011;9719;49.322;8.536;2023-05-07T04:24:57;1.73;;;1.63;;
19173;SDS011;9719;49.322;8.536;2023-05-07T04:30:00;4.28;;;1.88;;
19173;SDS011;9719;49.322;8.536;2023-05-07T04:35:02;1.95;;;1.85;;
19173;SDS011;9719;49.322;8.536;2023-05-07T04:40:06;5.47;;;1.95;;
19173;SDS011;9719;49.322;8.536;2023-05-07T04:45:08;1.50;;;1.40;;
19173;SDS011;9719;49.322;8.536;2023-05-07T04:50:12;1.73;;;1.63;;
19173;SDS011;9719;49.322;8.536;2023-05-07T04:55:15;1.85;;;1.75;;
19173;SDS011;9719;49.322;8.536;2023-05-07T05:00:17;2.42;;;2.00;;
19173;SDS011;9719;49.322;8.536;2023-05-07T05:05:19;1.75;;;1.65;;
19173;SDS011;9719;49.322;8.536;2023-05-07T05:10:22;2.58;;;2.33;;
19173;SDS011;9719;49.322;8.536;2023-05-07T05:15:24;2.10;;;2.00;;
19173;SDS011;9719;49.322;8.536;2023-05-07T05:20:26;1.90;;;1.77;;
19173;SDS011;9719;49.322;8.536;2023-05-07T05:25:29;1.80;;;1.70;;
19173;SDS011;9719;49.322;8.536;2023-05-07T05:30:30;2.25;;;2.05;;
19173;SDS011;9719;49.322;8.536;2023-05-07T05:35:32;2.42;;;2.15;;
19173;SDS011;9719;49.322;8.536;2023-05-07T05:40:36;2.03;;;1.92;;
19173;SDS011;9719;49.322;8.536;2023-05-07T05:45:38;2.85;;;2.22;;
19173;SDS011;9719;49.322;8.536;2023-05-07T05:50:41;2.30;;;2.10;;
19173;SDS011;9719;49.322;8.536;2023-05-07T05:55:44;2.45;;;2.00;;
19173;SDS011;9719;49.322;8.536;2023-05-07T06:00:46;2.00;;;1.90;;
19173;SDS011;9719;49.322;8.536;2023-05-07T06:05:48;2.40;;;2.20;;
19173;SDS011;9719;49.322;8.536;2023-05-07T06:10:51;2.88;;;1.83;;
19173;SDS011;9719;49.322;8.536;2023-05-07T06:15:53;2.92;;;2.25;;
19173;SDS011;9719;49.322;8.536;2023-05-07T06:20:54;2.45;;;2.25;;
19173;SDS011;9719;49.322;8.536;2023-05-07T06:25:57;2.10;;;1.95;;
19173;SDS011;9719;49.322;8.536;2023-05-07T06:31:10;3.05;;;2.03;;
19173;SDS011;9719;49.322;8.536;2023-05-07T06:36:12;1.98;;;1.88;;
19173;SDS011;9719;49.322;8.536;2023-05-07T06:41:15;2.60;;;2.45;;
19173;SDS011;9719;49.322;8.536;2023-05-07T06:46:17;2.22;;;1.77;;
19173;SDS011;9719;49.322;8.536;2023-05-07T06:51:18;2.25;;;2.05;;
19173;SDS011;9719;49.322;8.536;2023-05-07T06:56:21;1.80;;;1.70;;
19173;SDS011;9719;49.322;8.536;2023-05-07T07:01:23;1.60;;;1.50;;
19173;SDS011;9719;49.322;8.536;2023-05-07T07:06:25;2.05;;;1.95;;
19173;SDS011;9719;49.322;8.536;2023-05-07T07:11:30;4.28;;;1.80;;
19173;SDS011;9719;49.322;8.536;2023-05-07T07:16:32;1.58;;;1.50;;
19173;SDS011;9719;49.322;8.536;2023-05-07T07:21:34;1.55;;;1.45;;
19173;SDS011;9719;49.322;8.536;2023-05-07T07:26:37;1.70;;;1.60;;
19173;SDS011;9719;49.322;8.536;2023-05-07T07:31:39;2.50;;;2.30;;
19173;SDS011;9719;49.322;8.536;2023-05-07T07:36:41;2.03;;;1.52;;
19173;SDS011;9719;49.322;8.536;2023-05-07T07:41:44;1.45;;;1.35;;
19173;SDS011;9719;49.322;8.536;2023-05-07T07:46:46;2.45;;;1.75;;
19173;SDS011;9719;49.322;8.536;2023-05-07T07:51:47;2.60;;;1.80;;
19173;SDS011;9719;49.322;8.536;2023-05-07T07:56:51;1.40;;;1.30;;
19173;SDS011;9719;49.322;8.536;2023-05-07T08:01:52;1.55;;;1.15;;
19173;SDS011;9719;49.322;8.536;2023-05-07T08:06:56;1.58;;;1.48;;
19173;SDS011;9719;49.322;8.536;2023-05-07T08:11:59;1.30;;;1.20;;
19173;SDS011;9719;49.322;8.536;2023-05-07T08:17:01;1.58;;;1.48;;
19173;SDS011;9719;49.322;8.536;2023-05-07T08:22:03;2.40;;;1.45;;
19173;SDS011;9719;49.322;8.536;2023-05-07T08:27:06;1.40;;;1.30;;
19173;SDS011;9719;49.322;8.536;2023-05-07T08:32:08;1.63;;;1.48;;
19173;SDS011;9719;49.322;8.536;2023-05-07T08:37:10;1.45;;;1.35;;
19173;SDS011;9719;49.322;8.536;2023-05-07T08:42:13;3.10;;;1.48;;
19173;SDS011;9719;49.322;8.536;2023-05-07T08:47:17;1.33;;;1.10;;
19173;SDS011;9719;49.322;8.536;2023-05-07T08:52:20;2.83;;;1.10;;
19173;SDS011;9719;49.322;8.536;2023-05-07T08:57:23;1.65;;;1.45;;
19173;SDS011;9719;49.322;8.536;2023-05-07T09:02:25;1.25;;;1.17;;
19173;SDS011;9719;49.322;8.536;2023-05-07T09:07:28;4.88;;;1.52;;
19173;SDS011;9719;49.322;8.536;2023-05-07T09:12:32;1.30;;;1.00;;
19173;SDS011;9719;49.322;8.536;2023-05-07T09:17:35;1.58;;;1.05;;
19173;SDS011;9719;49.322;8.536;2023-05-07T09:22:37;1.15;;;0.98;;
19173;SDS011;9719;49.322;8.536;2023-05-07T09:27:41;0.90;;;0.90;;
19173;SDS011;9719;49.322;8.536;2023-05-07T09:32:43;4.10;;;1.52;;
19173;SDS011;9719;49.322;8.536;2023-05-07T09:37:44;1.27;;;0.80;;
19173;SDS011;9719;49.322;8.536;2023-05-07T09:42:48;1.98;;;1.20;;
19173;SDS011;9719;49.322;8.536;2023-05-07T09:47:52;0.95;;;0.95;;
19173;SDS011;9719;49.322;8.536;2023-05-07T09:52:55;2.78;;;1.33;;
19173;SDS011;9719;49.322;8.536;2023-05-07T09:57:59;1.33;;;1.20;;
19173;SDS011;9719;49.322;8.536;2023-05-07T10:03:02;2.72;;;1.42;;
19173;SDS011;9719;49.322;8.536;2023-05-07T10:08:05;1.00;;;0.95;;
19173;SDS011;9719;49.322;8.536;2023-05-07T10:13:09;1.52;;;1.15;;
19173;SDS011;9719;49.322;8.536;2023-05-07T10:18:11;0.80;;;0.80;;
19173;SDS011;9719;49.322;8.536;2023-05-07T10:23:14;0.90;;;0.75;;
19173;SDS011;9719;49.322;8.536;2023-05-07T10:28:23;1.02;;;0.88;;
19173;SDS011;9719;49.322;8.536;2023-05-07T10:33:27;2.90;;;0.90;;
19173;SDS011;9719;49.322;8.536;2023-05-07T10:38:30;0.60;;;0.60;;
19173;SDS011;9719;49.322;8.536;2023-05-07T10:43:44;0.85;;;0.85;;
19173;SDS011;9719;49.322;8.536;2023-05-07T10:54:19;2.30;;;0.90;;
19173;SDS011;9719;49.322;8.536;2023-05-07T10:59:36;2.25;;;0.82;;
19173;SDS011;9719;49.322;8.536;2023-05-07T11:04:43;1.38;;;1.15;;
19173;SDS011;9719;49.322;8.536;2023-05-07T11:10:01;1.15;;;1.13;;
19173;SDS011;9719;49.322;8.536;2023-05-07T11:15:06;1.20;;;1.10;;
19173;SDS011;9719;49.322;8.536;2023-05-07T11:20:09;1.67;;;1.00;;
19173;SDS011;9719;49.322;8.536;2023-05-07T11:25:11;1.08;;;1.00;;
19173;SDS011;9719;49.322;8.536;2023-05-07T11:30:20;0.98;;;0.88;;
19173;SDS011;9719;49.322;8.536;2023-05-07T11:35:22;1.50;;;1.27;;
19173;SDS011;9719;49.322;8.536;2023-05-07T11:40:24;1.20;;;0.70;;
19173;SDS011;9719;49.322;8.536;2023-05-07T11:45:27;1.02;;;0.93;;
19173;SDS011;9719;49.322;8.536;2023-05-07T11:50:29;0.75;;;0.70;;
19173;SDS011;9719;49.322;8.536;2023-05-07T11:55:31;0.70;;;0.70;;
19173;SDS011;9719;49.322;8.536;2023-05-07T12:00:34;0.80;;;0.80;;
19173;SDS011;9719;49.322;8.536;2023-05-07T12:05:36;1.10;;;0.88;;
19173;SDS011;9719;49.322;8.536;2023-05-07T12:10:41;1.48;;;1.00;;
19173;SDS011;9719;49.322;8.536;2023-05-07T12:57:49;0.95;;;0.80;;
19173;SDS011;9719;49.322;8.536;2023-05-07T13:02:59;0.80;;;0.70;;
19173;SDS011;9719;49.322;8.536;2023-05-07T13:08:01;0.70;;;0.70;;
19173;SDS011;9719;49.322;8.536;2023-05-07T13:13:02;0.75;;;0.65;;
19173;SDS011;9719;49.322;8.536;2023-05-07T13:18:06;1.23;;;1.13;;
19173;SDS011;9719;49.322;8.536;2023-05-07T13:23:07;0.50;;;0.50;;
19173;SDS011;9719;49.322;8.536;2023-05-07T13:28:09;1.55;;;0.90;;
19173;SDS011;9719;49.322;8.536;2023-05-07T13:33:12;1.20;;;0.88;;
19173;SDS011;9719;49.322;8.536;2023-05-07T13:38:15;1.42;;;1.00;;
19173;SDS011;9719;49.322;8.536;2023-05-07T13:43:17;1.48;;;0.60;;
19173;SDS011;9719;49.322;8.536;2023-05-07T13:48:20;0.70;;;0.70;;
19173;SDS011;9719;49.322;8.536;2023-05-07T13:53:21;0.90;;;0.90;;
19173;SDS011;9719;49.322;8.536;2023-05-07T13:58:23;0.73;;;0.70;;
19173;SDS011;9719;49.322;8.536;2023-05-07T14:03:26;1.52;;;1.13;;
19173;SDS011;9719;49.322;8.536;2023-05-07T14:08:28;1.60;;;1.00;;
19173;SDS011;9719;49.322;8.536;2023-05-07T14:13:29;1.15;;;0.80;;
19173;SDS011;9719;49.322;8.536;2023-05-07T14:18:33;1.40;;;1.30;;
19173;SDS011;9719;49.322;8.536;2023-05-07T14:23:36;0.88;;;0.88;;
19173;SDS011;9719;49.322;8.536;2023-05-07T14:28:38;1.35;;;1.25;;
19173;SDS011;9719;49.322;8.536;2023-05-07T14:33:42;1.35;;;1.25;;
19173;SDS011;9719;49.322;8.536;2023-05-07T14:38:44;0.88;;;0.88;;
19173;SDS011;9719;49.322;8.536;2023-05-07T14:43:45;0.80;;;0.80;;
19173;SDS011;9719;49.322;8.536;2023-05-07T14:48:51;3.38;;;1.63;;
19173;SDS011;9719;49.322;8.536;2023-05-07T14:53:53;2.90;;;0.50;;
19173;SDS011;9719;49.322;8.536;2023-05-07T14:58:55;1.10;;;1.10;;
19173;SDS011;9719;49.322;8.536;2023-05-07T15:03:58;2.42;;;1.15;;
19173;SDS011;9719;49.322;8.536;2023-05-07T15:09:00;2.38;;;1.00;;
19173;SDS011;9719;49.322;8.536;2023-05-07T15:14:02;0.90;;;0.90;;
19173;SDS011;9719;49.322;8.536;2023-05-07T15:19:06;1.85;;;1.02;;
19173;SDS011;9719;49.322;8.536;2023-05-07T15:24:07;1.13;;;1.02;;
19173;SDS011;9719;49.322;8.536;2023-05-07T15:29:09;0.57;;;0.57;;
19173;SDS011;9719;49.322;8.536;2023-05-07T15:34:12;0.70;;;0.70;;
19173;SDS011;9719;49.322;8.536;2023-05-07T15:39:15;0.65;;;0.50;;
19173;SDS011;9719;49.322;8.536;2023-05-07T15:44:16;2.05;;;0.80;;
19173;SDS011;9719;49.322;8.536;2023-05-07T15:49:19;0.77;;;0.77;;
19173;SDS011;9719;49.322;8.536;2023-05-07T15:54:21;0.82;;;0.80;;
19173;SDS011;9719;49.322;8.536;2023-05-07T15:59:24;0.80;;;0.80;;
19173;SDS011;9719;49.322;8.536;2023-05-07T16:04:27;1.05;;;1.05;;
19173;SDS011;9719;49.322;8.536;2023-05-07T16:09:28;0.93;;;0.93;;
19173;SDS011;9719;49.322;8.536;2023-05-07T16:14:30;0.88;;;0.73;;
19173;SDS011;9719;49.322;8.536;2023-05-07T16:19:33;1.25;;;0.90;;
19173;SDS011;9719;49.322;8.536;2023-05-07T16:24:35;1.50;;;0.73;;
19173;SDS011;9719;49.322;8.536;2023-05-07T16:29:36;0.88;;;0.80;;
19173;SDS011;9719;49.322;8.536;2023-05-07T16:34:40;0.80;;;0.80;;
19173;SDS011;9719;49.322;8.536;2023-05-07T16:39:41;0.90;;;0.90;;
19173;SDS011;9719;49.322;8.536;2023-05-07T16:44:43;2.88;;;0.85;;
19173;SDS011;9719;49.322;8.536;2023-05-07T16:49:46;1.85;;;0.88;;
19173;SDS011;9719;49.322;8.536;2023-05-07T16:54:49;1.65;;;1.27;;
19173;SDS011;9719;49.322;8.536;2023-05-07T16:59:51;0.70;;;0.70;;
19173;SDS011;9719;49.322;8.536;2023-05-07T17:04:54;0.77;;;0.77;;
19173;SDS011;9719;49.322;8.536;2023-05-07T17:09:55;0.77;;;0.70;;
19173;SDS011;9719;49.322;8.536;2023-05-07T17:14:57;1.48;;;0.73;;
19173;SDS011;9719;49.322;8.536;2023-05-07T17:20:00;0.80;;;0.80;;
19173;SDS011;9719;49.322;8.536;2023-05-07T17:25:02;0.68;;;0.65;;
19173;SDS011;9719;49.322;8.536;2023-05-07T17:30:04;0.85;;;0.85;;
19173;SDS011;9719;49.322;8.536;2023-05-07T17:35:08;2.30;;;2.20;;
19173;SDS011;9719;49.322;8.536;2023-05-07T17:40:10;2.17;;;1.27;;
19173;SDS011;9719;49.322;8.536;2023-05-07T17:45:12;0.88;;;0.88;;
19173;SDS011;9719;49.322;8.536;2023-05-07T17:50:15;1.02;;;0.85;;
19173;SDS011;9719;49.322;8.536;2023-05-07T17:55:17;0.75;;;0.75;;
19173;SDS011;9719;49.322;8.536;2023-05-07T18:00:19;0.70;;;0.70;;
19173;SDS011;9719;49.322;8.536;2023-05-07T18:05:22;0.85;;;0.85;;
19173;SDS011;9719;49.322;8.536;2023-05-07T18:10:24;0.80;;;0.80;;
19173;SDS011;9719;49.322;8.536;2023-05-07T18:15:26;1.52;;;0.80;;
19173;SDS011;9719;49.322;8.536;2023-05-07T18:20:29;1.30;;;0.88;;
19173;SDS011;9719;49.322;8.536;2023-05-07T18:25:31;1.30;;;1.20;;
19173;SDS011;9719;49.322;8.536;2023-05-07T18:30:33;2.42;;;1.17;;
19173;SDS011;9719;49.322;8.536;2023-05-07T18:35:36;0.85;;;0.80;;
19173;SDS011;9719;49.322;8.536;2023-05-07T18:40:38;1.00;;;1.00;;
19173;SDS011;9719;49.322;8.536;2023-05-07T18:45:43;1.20;;;1.10;;
19173;SDS011;9719;49.322;8.536;2023-05-07T18:50:48;1.13;;;1.02;;
19173;SDS011;9719;49.322;8.536;2023-05-07T18:55:50;0.80;;;0.80;;
19173;SDS011;9719;49.322;8.536;2023-05-07T19:00:53;1.10;;;1.00;;
19173;SDS011;9719;49.322;8.536;2023-05-07T19:05:56;1.52;;;0.93;;
19173;SDS011;9719;49.322;8.536;2023-05-07T19:10:57;1.55;;;0.80;;
19173;SDS011;9719;49.322;8.536;2023-05-07T19:15:59;1.30;;;1.20;;
19173;SDS011;9719;49.322;8.536;2023-05-07T19:21:02;1.08;;;1.00;;
19173;SDS011;9719;49.322;8.536;2023-05-07T19:26:04;1.10;;;1.00;;
19173;SDS011;9719;49.322;8.536;2023-05-07T19:31:06;1.45;;;1.35;;
19173;SDS011;9719;49.322;8.536;2023-05-07T19:36:09;0.77;;;0.77;;
19173;SDS011;9719;49.322;8.536;2023-05-07T19:41:11;1.42;;;1.15;;
19173;SDS011;9719;49.322;8.536;2023-05-07T19:46:12;1.75;;;1.00;;
19173;SDS011;9719;49.322;8.536;2023-05-07T19:51:16;1.40;;;1.23;;
19173;SDS011;9719;49.322;8.536;2023-05-07T19:56:18;1.65;;;1.33;;
19173;SDS011;9719;49.322;8.536;2023-05-07T20:01:21;1.17;;;1.10;;
19173;SDS011;9719;49.322;8.536;2023-05-07T20:06:24;1.00;;;0.88;;
19173;SDS011;9719;49.322;8.536;2023-05-07T20:11:26;1.05;;;0.95;;
19173;SDS011;9719;49.322;8.536;2023-05-07T20:16:27;1.08;;;1.08;;
19173;SDS011;9719;49.322;8.536;2023-05-07T20:21:30;1.05;;;1.05;;
19173;SDS011;9719;49.322;8.536;2023-05-07T20:26:32;0.80;;;0.80;;
19173;SDS011;9719;49.322;8.536;2023-05-07T20:31:34;1.30;;;1.20;;
19173;SDS011;9719;49.322;8.536;2023-05-07T20:36:37;3.35;;;1.23;;
19173;SDS011;9719;49.322;8.536;2023-05-07T20:41:39;1.10;;;0.95;;
19173;SDS011;9719;49.322;8.536;2023-05-07T20:46:40;1.38;;;1.20;;
19173;SDS011;9719;49.322;8.536;2023-05-07T20:51:44;1.15;;;1.00;;
19173;SDS011;9719;49.322;8.536;2023-05-07T20:56:46;1.30;;;1.20;;
19173;SDS011;9719;49.322;8.536;2023-05-07T21:01:48;1.63;;;1.48;;
19173;SDS011;9719;49.322;8.536;2023-05-07T21:06:51;0.90;;;0.77;;
19173;SDS011;9719;49.322;8.536;2023-05-07T21:11:53;2.17;;;1.23;;
19173;SDS011;9719;49.322;8.536;2023-05-07T21:16:54;2.17;;;1.98;;
19173;SDS011;9719;49.322;8.536;2023-05-07T21:21:59;2.42;;;1.70;;
19173;SDS011;9719;49.322;8.536;2023-05-07T21:27:01;3.67;;;2.33;;
19173;SDS011;9719;49.322;8.536;2023-05-07T21:32:03;2.55;;;2.10;;
19173;SDS011;9719;49.322;8.536;2023-05-07T21:37:06;2.28;;;2.08;;
19173;SDS011;9719;49.322;8.536;2023-05-07T21:42:08;4.05;;;2.33;;
19173;SDS011;9719;49.322;8.536;2023-05-07T21:47:10;5.38;;;2.80;;
19173;SDS011;9719;49.322;8.536;2023-05-07T21:52:13;2.28;;;2.17;;
19173;SDS011;9719;49.322;8.536;2023-05-07T21:57:15;2.28;;;2.08;;
19173;SDS011;9719;49.322;8.536;2023-05-07T22:02:17;2.55;;;2.35;;
19173;SDS011;9719;49.322;8.536;2023-05-07T22:07:20;3.17;;;2.47;;
19173;SDS011;9719;49.322;8.536;2023-05-07T22:12:22;3.50;;;2.80;;
19173;SDS011;9719;49.322;8.536;2023-05-07T22:17:24;7.13;;;3.88;;
19173;SDS011;9719;49.322;8.536;2023-05-07T22:22:27;6.45;;;4.25;;
19173;SDS011;9719;49.322;8.536;2023-05-07T22:27:28;5.38;;;2.88;;
19173;SDS011;9719;49.322;8.536;2023-05-07T22:32:31;3.97;;;2.70;;
19173;SDS011;9719;49.322;8.536;2023-05-07T22:37:34;5.03;;;3.33;;
19173;SDS011;9719;49.322;8.536;2023-05-07T22:42:36;5.93;;;3.25;;
19173;SDS011;9719;49.322;8.536;2023-05-07T22:47:37;8.85;;;3.33;;
19173;SDS011;9719;49.322;8.536;2023-05-07T22:52:40;4.40;;;3.80;;
19173;SDS011;9719;49.322;8.536;2023-05-07T22:57:42;6.22;;;3.60;;
19173;SDS011;9719;49.322;8.536;2023-05-07T23:02:44;5.57;;;3.45;;
19173;SDS011;9719;49.322;8.536;2023-05-07T23:07:47;4.50;;;2.95;;
19173;SDS011;9719;49.322;8.536;2023-05-07T23:12:48;3.50;;;3.15;;
19173;SDS011;9719;49.322;8.536;2023-05-07T23:17:50;4.15;;;3.47;;
19173;SDS011;9719;49.322;8.536;2023-05-07T23:22:53;4.72;;;3.60;;
19173;SDS011;9719;49.322;8.536;2023-05-07T23:27:55;3.00;;;2.40;;
19173;SDS011;9719;49.322;8.536;2023-05-07T23:32:57;5.82;;;3.40;;
19173;SDS011;9719;49.322;8.536;2023-05-07T23:38:00;3.47;;;3.00;;
19173;SDS011;9719;49.322;8.536;2023-05-07T23:43:02;4.88;;;2.90;;
19173;SDS011;9719;49.322;8.536;2023-05-07T23:48:04;3.33;;;3.08;;
19173;SDS011;9719;49.322;8.536;2023-05-07T23:53:07;4.97;;;3.28;;
19173;SDS011;9719;49.322;8.536;2023-05-07T23:58:09;3.42;;;2.80;;
